Time;durP1;ratioP1;P1;durP2;ratioP2;P2;SDS_P1;SDS_P2;PMS_P1;PMS_P2;Temp;Humidity;BMP_temperature;BMP_pressure;BME280_temperature;BME280_humidity;BME280_pressure;Samples;Min_cycle;Max_cycle;Signal;HPM_P1;HPM_P2
2023/12/17 00:01:09;;;;;;;5.60;3.88;;;6.00;99.90;;;;;;5010940;28;20216;-78
2023/12/17 00:03:37;;;;;;;5.38;2.80;;;6.00;99.90;;;;;;5010360;28;20217;-77
2023/12/17 00:06:06;;;;;;;4.50;3.60;;;6.20;99.90;;;;;;5010172;28;20267;-77
2023/12/17 00:08:34;;;;;;;6.35;4.80;;;6.30;99.90;;;;;;5010117;28;20672;-77
2023/12/17 00:11:04;;;;;;;4.28;3.88;;;6.50;99.90;;;;;;5010868;28;20202;-76
2023/12/17 00:13:32;;;;;;;5.18;3.45;;;6.70;99.90;;;;;;5010470;28;20209;-75
2023/12/17 00:15:59;;;;;;;6.20;3.42;;;6.80;99.90;;;;;;5013896;28;20224;-75
2023/12/17 00:18:27;;;;;;;8.27;3.90;;;6.50;99.90;;;;;;5013538;28;20213;-75
2023/12/17 00:20:56;;;;;;;7.75;5.05;;;6.00;99.90;;;;;;5002564;28;20217;-77
2023/12/17 00:23:24;;;;;;;7.15;4.25;;;5.50;99.90;;;;;;5010607;28;20209;-76
2023/12/17 00:25:52;;;;;;;4.30;3.90;;;5.60;99.90;;;;;;5010344;28;20229;-74
2023/12/17 00:28:21;;;;;;;5.25;3.88;;;5.60;99.90;;;;;;5009743;28;20205;-75
2023/12/17 00:30:50;;;;;;;4.80;4.22;;;5.90;99.90;;;;;;5010134;28;20213;-75
2023/12/17 00:33:18;;;;;;;5.55;4.53;;;6.20;99.90;;;;;;5010318;28;20214;-75
2023/12/17 00:35:46;;;;;;;7.88;4.97;;;6.40;99.90;;;;;;5015426;28;20351;-75
2023/12/17 00:38:14;;;;;;;4.18;3.70;;;6.40;99.90;;;;;;5009780;28;20675;-75
2023/12/17 00:40:42;;;;;;;4.65;4.15;;;6.60;99.90;;;;;;5010122;28;20220;-75
2023/12/17 00:43:10;;;;;;;3.80;3.40;;;6.70;99.90;;;;;;5010115;28;20202;-75
2023/12/17 00:45:39;;;;;;;4.97;4.47;;;6.60;99.90;;;;;;5009533;28;20244;-75
2023/12/17 00:48:07;;;;;;;4.75;3.63;;;6.50;99.90;;;;;;5009675;28;20259;-75
2023/12/17 00:50:35;;;;;;;11.13;3.55;;;6.60;99.90;;;;;;5009780;28;20220;-75
2023/12/17 00:53:03;;;;;;;7.75;4.03;;;6.60;99.90;;;;;;5010233;28;20224;-75
2023/12/17 00:55:31;;;;;;;9.05;4.60;;;6.70;99.90;;;;;;5009860;28;20225;-74
2023/12/17 00:57:59;;;;;;;6.13;4.50;;;6.80;99.90;;;;;;5017489;28;20205;-77
2023/12/17 01:00:27;;;;;;;3.58;3.25;;;7.00;99.90;;;;;;5010160;28;20209;-76
2023/12/17 01:02:57;;;;;;;5.82;4.10;;;7.10;99.90;;;;;;5010223;28;20205;-76
2023/12/17 01:05:25;;;;;;;7.93;4.90;;;6.70;99.90;;;;;;5009658;28;20657;-77
2023/12/17 01:07:53;;;;;;;4.63;4.03;;;6.20;99.90;;;;;;5012133;28;20264;-77
2023/12/17 01:10:21;;;;;;;4.60;3.63;;;6.10;99.90;;;;;;5013086;28;20205;-75
2023/12/17 01:12:48;;;;;;;5.70;4.68;;;5.70;99.90;;;;;;5013206;28;20220;-76
2023/12/17 01:15:16;;;;;;;6.80;4.68;;;5.30;99.90;;;;;;5013408;28;20221;-76
2023/12/17 01:17:44;;;;;;;8.07;4.75;;;5.10;99.90;;;;;;5012694;28;20205;-76
2023/12/17 01:20:14;;;;;;;5.50;4.65;;;5.20;99.90;;;;;;5013132;28;20204;-75
2023/12/17 01:22:41;;;;;;;9.02;6.15;;;5.00;99.90;;;;;;5012793;28;20209;-76
2023/12/17 01:25:10;;;;;;;6.47;4.85;;;4.80;99.90;;;;;;5013524;28;20255;-76
2023/12/17 01:27:37;;;;;;;7.78;5.05;;;4.70;99.90;;;;;;5012600;28;20665;-75
2023/12/17 01:30:07;;;;;;;5.80;5.25;;;4.80;99.90;;;;;;5013243;28;20213;-76
2023/12/17 01:32:35;;;;;;;6.90;4.95;;;4.80;99.90;;;;;;5012864;28;20217;-75
2023/12/17 01:35:05;;;;;;;10.82;4.38;;;4.70;99.90;;;;;;5015032;28;20252;-75
2023/12/17 01:37:34;;;;;;;6.90;4.90;;;4.90;99.90;;;;;;5016285;28;20237;-75
2023/12/17 01:40:03;;;;;;;7.13;4.30;;;5.30;99.90;;;;;;5005221;28;20283;-76
2023/12/17 01:42:31;;;;;;;6.20;5.10;;;5.50;99.90;;;;;;5012965;28;20291;-76
2023/12/17 01:44:58;;;;;;;6.28;4.47;;;5.80;99.90;;;;;;5012659;28;20217;-75
2023/12/17 01:47:27;;;;;;;6.35;5.00;;;6.10;99.90;;;;;;5012581;28;20221;-74
2023/12/17 01:49:54;;;;;;;5.72;4.38;;;6.30;99.90;;;;;;5005718;28;20628;-70
2023/12/17 01:52:23;;;;;;;4.30;3.90;;;6.20;99.90;;;;;;5006201;28;20296;-70
2023/12/17 01:54:52;;;;;;;8.80;4.35;;;6.10;99.90;;;;;;5001798;28;20232;-70
2023/12/17 01:57:20;;;;;;;4.47;3.90;;;6.00;99.90;;;;;;4998856;28;20220;-69
2023/12/17 01:59:48;;;;;;;8.15;4.75;;;5.80;99.90;;;;;;4999648;28;20296;-71
2023/12/17 02:02:17;;;;;;;7.88;4.70;;;5.80;99.90;;;;;;5000851;28;20666;-72
2023/12/17 02:04:45;;;;;;;7.97;4.18;;;5.80;99.90;;;;;;4995256;28;20618;-73
2023/12/17 02:07:13;;;;;;;7.55;4.28;;;5.80;99.90;;;;;;4991291;28;20229;-70
2023/12/17 02:09:42;;;;;;;4.70;3.97;;;5.90;99.90;;;;;;5000416;28;20672;-71
2023/12/17 02:12:24;;;;;;;4.78;4.03;;;5.80;99.90;;;;;;5001473;28;20282;-70
2023/12/17 02:14:52;;;;;;;6.55;4.80;;;5.80;99.90;;;;;;5000787;28;20233;-70
2023/12/17 02:17:25;;;;;;;5.13;4.00;;;5.60;99.90;;;;;;5000084;28;20209;-69
2023/12/17 02:19:53;;;;;;;5.53;4.10;;;5.40;99.90;;;;;;5000287;28;20767;-76
2023/12/17 02:22:23;;;;;;;5.35;4.45;;;5.30;99.90;;;;;;5000688;28;20213;-73
2023/12/17 02:24:53;;;;;;;6.22;4.72;;;5.20;99.90;;;;;;4998275;28;20233;-71
2023/12/17 02:27:22;;;;;;;6.40;4.40;;;5.20;99.90;;;;;;4999592;28;20232;-73
2023/12/17 02:29:50;;;;;;;7.90;4.53;;;5.20;99.90;;;;;;5000794;28;20328;-69
2023/12/17 02:32:20;;;;;;;6.63;4.20;;;5.10;99.90;;;;;;5000534;28;20643;-70
2023/12/17 02:34:48;;;;;;;4.78;4.05;;;5.20;99.90;;;;;;4999715;28;20236;-72
2023/12/17 02:37:17;;;;;;;5.07;4.47;;;5.30;99.90;;;;;;4999619;28;20687;-72
2023/12/17 02:39:45;;;;;;;6.00;4.47;;;5.40;99.90;;;;;;4999307;28;20851;-72
2023/12/17 02:42:14;;;;;;;6.82;5.10;;;5.40;99.90;;;;;;5000330;28;20221;-70
2023/12/17 02:44:42;;;;;;;5.43;4.65;;;5.50;99.90;;;;;;4999918;28;20217;-71
2023/12/17 02:47:10;;;;;;;5.47;4.57;;;5.50;99.90;;;;;;4999869;28;20225;-70
2023/12/17 02:49:38;;;;;;;6.80;5.28;;;5.50;99.90;;;;;;5000457;28;20213;-73
2023/12/17 02:52:07;;;;;;;5.65;4.00;;;5.50;99.90;;;;;;4999843;28;20593;-72
2023/12/17 02:54:35;;;;;;;6.43;4.35;;;5.30;99.90;;;;;;5000242;28;20901;-70
2023/12/17 02:57:03;;;;;;;4.07;3.55;;;5.20;99.90;;;;;;4999957;28;20205;-70
2023/12/17 02:59:33;;;;;;;6.30;4.40;;;5.00;99.90;;;;;;5000359;28;20205;-69
2023/12/17 03:02:00;;;;;;;6.60;5.78;;;5.00;99.90;;;;;;4999661;28;20212;-73
2023/12/17 03:04:28;;;;;;;7.88;5.28;;;4.90;99.90;;;;;;5000392;28;20237;-71
2023/12/17 03:06:56;;;;;;;6.53;5.18;;;4.80;99.90;;;;;;4999066;28;20217;-71
2023/12/17 03:09:24;;;;;;;8.02;5.28;;;4.60;99.90;;;;;;4999817;28;20213;-74
2023/12/17 03:11:52;;;;;;;12.07;6.65;;;4.60;99.90;;;;;;5000281;28;20213;-71
2023/12/17 03:14:21;;;;;;;5.53;4.63;;;4.60;99.90;;;;;;4999497;28;20327;-72
2023/12/17 03:16:50;;;;;;;7.72;5.63;;;4.60;99.90;;;;;;4998685;28;20655;-71
2023/12/17 03:19:18;;;;;;;7.05;6.35;;;4.50;99.90;;;;;;4999515;28;20849;-72
2023/12/17 03:21:45;;;;;;;5.38;4.85;;;4.50;99.90;;;;;;4999874;28;20240;-70
2023/12/17 03:24:13;;;;;;;8.05;4.93;;;4.50;99.90;;;;;;4999723;28;20236;-71
2023/12/17 03:26:41;;;;;;;5.60;4.60;;;4.70;99.90;;;;;;4999350;28;20228;-72
2023/12/17 03:29:10;;;;;;;5.22;4.63;;;4.60;99.90;;;;;;4999553;28;20205;-72
2023/12/17 03:31:38;;;;;;;6.43;5.82;;;4.70;99.90;;;;;;5000036;28;20213;-70
2023/12/17 03:34:07;;;;;;;10.70;6.32;;;4.70;99.90;;;;;;4998453;28;20216;-72
2023/12/17 03:36:35;;;;;;;8.55;4.93;;;4.70;99.90;;;;;;5000199;28;20221;-71
2023/12/17 03:39:04;;;;;;;6.32;5.63;;;4.80;99.90;;;;;;4999030;28;20205;-72
2023/12/17 03:41:32;;;;;;;5.38;4.85;;;4.90;99.90;;;;;;4999259;28;20759;-70
2023/12/17 03:44:00;;;;;;;6.07;4.15;;;5.00;99.90;;;;;;5000008;28;20706;-73
2023/12/17 03:46:29;;;;;;;11.65;4.90;;;5.10;99.90;;;;;;4997353;28;20252;-74
2023/12/17 03:48:57;;;;;;;6.47;5.00;;;5.20;99.90;;;;;;4999786;28;20229;-73
2023/12/17 03:51:27;;;;;;;5.10;3.78;;;5.30;99.90;;;;;;5001246;28;20228;-71
2023/12/17 03:53:55;;;;;;;5.35;4.40;;;5.30;99.90;;;;;;5000207;28;20213;-72
2023/12/17 03:56:24;;;;;;;4.68;4.32;;;5.30;99.90;;;;;;4997210;28;20216;-71
2023/12/17 03:58:52;;;;;;;6.20;3.70;;;5.20;99.90;;;;;;4998789;28;20209;-71
2023/12/17 04:01:20;;;;;;;6.07;4.00;;;5.20;99.90;;;;;;4998595;28;20279;-71
2023/12/17 04:03:47;;;;;;;5.03;4.43;;;5.20;99.90;;;;;;4999507;28;20209;-70
2023/12/17 04:06:15;;;;;;;6.18;4.90;;;5.30;99.90;;;;;;4996944;28;20220;-73
2023/12/17 04:08:45;;;;;;;5.88;4.13;;;5.30;99.90;;;;;;4998160;28;20299;-71
2023/12/17 04:11:13;;;;;;;4.32;3.92;;;5.20;99.90;;;;;;4999942;28;20202;-71
2023/12/17 04:13:41;;;;;;;6.07;4.57;;;5.10;99.90;;;;;;4998933;28;20593;-73
2023/12/17 04:16:09;;;;;;;6.10;4.68;;;5.00;99.90;;;;;;4997503;28;20671;-70
2023/12/17 04:18:37;;;;;;;8.70;5.28;;;4.90;99.90;;;;;;4999143;28;20213;-69
2023/12/17 04:21:05;;;;;;;9.45;6.05;;;4.80;99.90;;;;;;5015181;28;20204;-71
2023/12/17 04:23:33;;;;;;;6.22;4.90;;;4.60;99.90;;;;;;5014098;28;20200;-71
2023/12/17 04:26:03;;;;;;;7.07;5.00;;;4.60;99.90;;;;;;5013403;28;20236;-71
2023/12/17 04:28:31;;;;;;;6.45;5.30;;;4.60;99.90;;;;;;5009836;28;20237;-72
2023/12/17 04:30:58;;;;;;;7.00;4.65;;;4.50;99.90;;;;;;5010388;28;20213;-71
2023/12/17 04:33:26;;;;;;;6.70;5.18;;;4.60;99.90;;;;;;5009688;28;20221;-70
2023/12/17 04:35:54;;;;;;;8.30;5.05;;;4.70;99.90;;;;;;5008811;28;20261;-72
2023/12/17 04:38:23;;;;;;;8.25;5.18;;;4.60;99.90;;;;;;5008771;28;20220;-71
2023/12/17 04:40:51;;;;;;;7.20;5.80;;;4.60;99.90;;;;;;5008991;28;20220;-74
2023/12/17 04:43:21;;;;;;;9.93;5.63;;;4.60;99.90;;;;;;5012375;28;20623;-71
2023/12/17 04:45:49;;;;;;;5.38;4.85;;;4.60;99.90;;;;;;5012799;28;20216;-71
2023/12/17 04:48:17;;;;;;;5.90;4.90;;;4.60;99.90;;;;;;5014992;28;20691;-71
2023/12/17 04:50:45;;;;;;;9.18;5.68;;;4.60;99.90;;;;;;5013862;28;20209;-71
2023/12/17 04:53:13;;;;;;;8.07;5.32;;;4.60;99.90;;;;;;5013332;28;20237;-71
2023/12/17 04:55:41;;;;;;;9.20;5.82;;;4.60;99.90;;;;;;5014211;28;20228;-73
2023/12/17 04:58:09;;;;;;;9.70;6.50;;;4.60;99.90;;;;;;5012891;28;20201;-70
2023/12/17 05:00:39;;;;;;;7.63;5.88;;;4.70;99.90;;;;;;5013954;28;20233;-71
2023/12/17 05:03:07;;;;;;;6.22;5.60;;;4.80;99.90;;;;;;5013367;28;20205;-73
2023/12/17 05:05:37;;;;;;;8.88;5.32;;;4.90;99.90;;;;;;5013400;28;20321;-73
2023/12/17 05:08:05;;;;;;;9.23;5.65;;;5.00;99.90;;;;;;5012700;28;20679;-72
2023/12/17 05:10:33;;;;;;;5.57;4.75;;;5.10;99.90;;;;;;5013567;28;20805;-72
2023/12/17 05:13:01;;;;;;;6.30;5.20;;;5.10;99.90;;;;;;5013174;28;20209;-74
2023/12/17 05:15:29;;;;;;;6.20;4.13;;;5.20;99.90;;;;;;5013164;28;20248;-72
2023/12/17 05:17:58;;;;;;;5.80;4.70;;;5.20;99.90;;;;;;5012733;28;20246;-73
2023/12/17 05:20:26;;;;;;;6.90;4.07;;;5.20;99.90;;;;;;5013276;28;20315;-72
2023/12/17 05:22:54;;;;;;;10.23;5.40;;;5.10;99.90;;;;;;5013634;28;20260;-71
2023/12/17 05:25:22;;;;;;;5.13;4.63;;;5.10;99.90;;;;;;5013684;28;20291;-72
2023/12/17 05:27:50;;;;;;;7.63;5.25;;;5.10;99.90;;;;;;5012652;28;20573;-71
2023/12/17 05:30:19;;;;;;;6.03;4.57;;;4.90;99.90;;;;;;5012984;28;20311;-71
2023/12/17 05:32:47;;;;;;;7.50;5.38;;;4.90;99.90;;;;;;5013009;28;20236;-71
2023/12/17 05:35:16;;;;;;;8.60;5.65;;;4.90;99.90;;;;;;5012627;28;20233;-71
2023/12/17 05:37:44;;;;;;;7.55;5.82;;;5.00;99.90;;;;;;5012290;28;20217;-71
2023/12/17 05:40:13;;;;;;;6.85;5.97;;;5.10;99.90;;;;;;5012895;28;20224;-72
2023/12/17 05:42:41;;;;;;;7.38;6.05;;;5.00;99.90;;;;;;5013121;28;20217;-72
2023/12/17 05:45:09;;;;;;;7.57;6.05;;;5.00;99.90;;;;;;5010147;28;20233;-73
2023/12/17 05:47:39;;;;;;;5.75;5.05;;;4.90;99.90;;;;;;5012314;28;20797;-71
2023/12/17 05:50:09;;;;;;;7.80;5.57;;;4.80;99.90;;;;;;5012594;28;20218;-71
2023/12/17 05:52:40;;;;;;;7.85;6.25;;;4.80;99.90;;;;;;4995001;28;20201;-70
2023/12/17 05:55:08;;;;;;;6.57;5.75;;;4.80;99.90;;;;;;5012132;28;20235;-72
2023/12/17 05:57:36;;;;;;;7.00;6.30;;;4.80;99.90;;;;;;5012182;28;20201;-72
2023/12/17 06:00:08;;;;;;;6.72;6.05;;;4.90;99.90;;;;;;5012440;28;20609;-73
2023/12/17 06:02:36;;;;;;;8.15;6.38;;;4.90;99.90;;;;;;5012623;28;20287;-73
2023/12/17 06:05:05;;;;;;;11.98;7.43;;;4.80;99.90;;;;;;5012307;28;20221;-72
2023/12/17 06:07:33;;;;;;;16.08;5.95;;;4.60;99.90;;;;;;5011631;28;20260;-72
2023/12/17 06:10:02;;;;;;;8.85;6.82;;;4.50;99.90;;;;;;5012608;28;20750;-73
2023/12/17 06:12:30;;;;;;;9.85;6.15;;;4.50;99.90;;;;;;5012317;28;20206;-74
2023/12/17 06:14:58;;;;;;;11.50;6.40;;;4.50;99.90;;;;;;5012166;28;20244;-73
2023/12/17 06:17:26;;;;;;;11.57;7.60;;;4.40;99.90;;;;;;5011596;28;20290;-73
2023/12/17 06:19:54;;;;;;;11.63;6.38;;;4.40;99.90;;;;;;5012391;28;20570;-73
2023/12/17 06:22:24;;;;;;;9.15;6.65;;;4.40;99.90;;;;;;5019796;28;20217;-73
2023/12/17 06:24:52;;;;;;;7.53;6.78;;;4.40;99.90;;;;;;5011936;28;20263;-71
2023/12/17 06:27:21;;;;;;;7.78;6.90;;;4.40;99.90;;;;;;5011353;28;20337;-71
2023/12/17 06:29:52;;;;;;;13.43;9.60;;;4.40;99.90;;;;;;5012027;28;20696;-72
2023/12/17 06:32:20;;;;;;;10.30;7.45;;;4.40;99.90;;;;;;5011807;28;20201;-71
2023/12/17 06:34:48;;;;;;;9.15;7.40;;;4.30;99.90;;;;;;5011849;28;20271;-72
2023/12/17 06:37:15;;;;;;;9.23;7.80;;;4.30;99.90;;;;;;5010851;28;20197;-71
2023/12/17 06:39:43;;;;;;;11.50;8.38;;;4.30;99.90;;;;;;5011928;28;20201;-72
2023/12/17 06:42:12;;;;;;;13.40;7.85;;;4.20;99.90;;;;;;5012306;28;20201;-72
2023/12/17 06:44:41;;;;;;;12.43;8.77;;;4.20;99.90;;;;;;5015395;28;20248;-74
2023/12/17 06:47:09;;;;;;;13.65;6.97;;;4.30;99.90;;;;;;5011072;28;20206;-71
2023/12/17 06:49:49;;;;;;;8.85;7.07;;;4.30;99.90;;;;;;5011605;28;20597;-71
2023/12/17 06:52:17;;;;;;;9.63;7.85;;;4.20;99.90;;;;;;5011333;28;20236;-71
2023/12/17 06:54:45;;;;;;;11.93;7.30;;;4.30;99.90;;;;;;5011626;28;20256;-71
2023/12/17 06:57:13;;;;;;;8.77;7.28;;;4.30;99.90;;;;;;5010921;28;20205;-71
2023/12/17 06:59:42;;;;;;;13.80;8.30;;;4.30;99.90;;;;;;5011617;28;20649;-71
2023/12/17 07:02:10;;;;;;;12.27;8.38;;;4.20;99.90;;;;;;5011254;28;20201;-73
2023/12/17 07:04:38;;;;;;;9.90;8.30;;;4.20;99.90;;;;;;5010431;28;20233;-71
2023/12/17 07:07:06;;;;;;;6.90;5.85;;;4.20;99.90;;;;;;5010830;28;20217;-71
2023/12/17 07:09:34;;;;;;;9.93;8.82;;;4.30;99.90;;;;;;5011324;28;20271;-71
2023/12/17 07:12:02;;;;;;;10.02;8.20;;;4.30;99.90;;;;;;5011424;28;20201;-71
2023/12/17 07:14:30;;;;;;;13.05;8.93;;;4.20;99.90;;;;;;5010635;28;20695;-71
2023/12/17 07:16:59;;;;;;;13.05;9.50;;;4.20;99.90;;;;;;5010898;28;20570;-71
2023/12/17 07:19:27;;;;;;;10.00;8.48;;;4.10;99.90;;;;;;5011060;28;20205;-71
2023/12/17 07:21:55;;;;;;;13.30;8.57;;;4.10;99.90;;;;;;5011026;28;20204;-71
2023/12/17 07:24:23;;;;;;;14.77;10.05;;;4.10;99.90;;;;;;5012764;28;20659;-71
2023/12/17 07:26:51;;;;;;;17.77;10.05;;;4.00;99.90;;;;;;5010543;28;20620;-71
2023/12/17 07:29:19;;;;;;;15.80;9.73;;;3.90;99.90;;;;;;5010702;28;20221;-71
2023/12/17 07:31:47;;;;;;;14.15;9.90;;;3.90;99.90;;;;;;5011142;28;20213;-74
2023/12/17 07:34:16;;;;;;;11.15;9.55;;;3.90;99.90;;;;;;5018308;28;20578;-73
2023/12/17 07:36:48;;;;;;;17.25;9.80;;;4.00;99.90;;;;;;5010410;28;20266;-71
2023/12/17 07:39:18;;;;;;;13.57;9.82;;;4.00;99.90;;;;;;5011160;28;20202;-71
2023/12/17 07:41:46;;;;;;;19.70;10.48;;;4.10;99.90;;;;;;5010685;28;20579;-71
2023/12/17 07:44:15;;;;;;;12.88;8.80;;;4.20;99.90;;;;;;5010656;28;20249;-71
2023/12/17 07:46:43;;;;;;;14.98;9.68;;;4.30;99.90;;;;;;5010503;28;20201;-71
2023/12/17 07:49:11;;;;;;;15.63;9.55;;;4.40;99.90;;;;;;5010547;28;20218;-71
2023/12/17 07:51:40;;;;;;;10.65;8.30;;;4.40;99.90;;;;;;5010708;28;20664;-72
2023/12/17 07:54:08;;;;;;;8.93;7.70;;;4.50;99.90;;;;;;5010519;28;20225;-71
2023/12/17 07:56:36;;;;;;;11.27;7.72;;;4.60;99.90;;;;;;5009858;28;20205;-72
2023/12/17 07:59:04;;;;;;;17.70;9.95;;;4.60;99.90;;;;;;5010627;28;20205;-70
2023/12/17 08:01:32;;;;;;;16.33;8.63;;;4.50;99.90;;;;;;5010526;28;20291;-72
2023/12/17 08:04:01;;;;;;;22.08;16.65;;;4.60;99.90;;;;;;5010448;28;20232;-71
2023/12/17 08:06:30;;;;;;;12.43;8.43;;;4.50;99.90;;;;;;5009358;28;20201;-72
2023/12/17 08:09:02;;;;;;;10.32;9.23;;;4.50;99.90;;;;;;5004256;28;20228;-72
2023/12/17 08:11:30;;;;;;;13.15;8.50;;;4.40;99.90;;;;;;5010907;28;20732;-72
2023/12/17 08:13:58;;;;;;;11.00;9.13;;;4.30;99.90;;;;;;5009234;28;20608;-71
2023/12/17 08:16:26;;;;;;;10.43;8.73;;;4.20;99.90;;;;;;5011434;28;20703;-71
2023/12/17 08:18:54;;;;;;;20.45;10.35;;;4.10;99.90;;;;;;5012947;28;20659;-71
2023/12/17 08:21:22;;;;;;;14.57;9.70;;;4.00;99.90;;;;;;5011515;28;20208;-71
2023/12/17 08:23:50;;;;;;;13.90;8.77;;;4.10;99.90;;;;;;5012689;28;20260;-72
2023/12/17 08:26:20;;;;;;;15.32;10.43;;;4.00;99.90;;;;;;5013279;28;20209;-72
2023/12/17 08:28:48;;;;;;;15.80;10.75;;;4.00;99.90;;;;;;5011767;28;20672;-72
2023/12/17 08:31:16;;;;;;;20.33;11.45;;;4.00;99.90;;;;;;5010683;28;20260;-71
2023/12/17 08:33:45;;;;;;;15.50;9.85;;;4.00;99.90;;;;;;5013347;28;20699;-72
2023/12/17 08:36:13;;;;;;;18.10;14.00;;;4.00;99.90;;;;;;5010480;28;20257;-72
2023/12/17 08:38:45;;;;;;;26.35;12.75;;;4.00;99.90;;;;;;5010244;28;20197;-71
2023/12/17 08:41:13;;;;;;;18.15;10.73;;;4.00;99.90;;;;;;5006168;28;20209;-73
2023/12/17 08:43:43;;;;;;;19.38;12.23;;;3.90;99.90;;;;;;5002391;28;20578;-71
2023/12/17 08:46:11;;;;;;;20.50;11.75;;;4.00;99.90;;;;;;5001774;28;20233;-72
2023/12/17 08:48:39;;;;;;;17.15;11.88;;;4.00;99.90;;;;;;5002202;28;20292;-71
2023/12/17 08:51:07;;;;;;;19.77;11.73;;;4.00;99.90;;;;;;5002412;28;20240;-70
2023/12/17 08:53:35;;;;;;;18.85;11.77;;;4.00;99.90;;;;;;5003221;28;20284;-74
2023/12/17 08:56:04;;;;;;;18.17;11.23;;;4.00;99.90;;;;;;5002892;28;20224;-70
2023/12/17 08:58:32;;;;;;;22.17;12.85;;;4.10;99.90;;;;;;5001457;28;20555;-71
2023/12/17 09:01:01;;;;;;;18.83;11.80;;;4.10;99.90;;;;;;5002726;28;20194;-70
2023/12/17 09:03:29;;;;;;;23.42;12.00;;;4.10;99.90;;;;;;5004380;28;20366;-72
2023/12/17 09:05:57;;;;;;;24.48;12.75;;;4.20;99.90;;;;;;5002504;28;20316;-71
2023/12/17 09:08:25;;;;;;;20.45;13.15;;;4.20;99.90;;;;;;5001785;28;20324;-74
2023/12/17 09:10:53;;;;;;;23.02;15.05;;;4.30;99.90;;;;;;5003050;28;20224;-72
2023/12/17 09:13:22;;;;;;;26.25;17.52;;;4.20;99.90;;;;;;5002652;28;20213;-71
2023/12/17 09:15:50;;;;;;;20.23;13.73;;;4.20;99.90;;;;;;5002819;28;20286;-71
2023/12/17 09:18:20;;;;;;;18.13;10.40;;;4.10;99.90;;;;;;5003507;28;20692;-72
2023/12/17 09:20:48;;;;;;;17.15;10.32;;;4.10;99.90;;;;;;5002627;28;20241;-74
2023/12/17 09:23:16;;;;;;;17.25;10.45;;;4.10;99.90;;;;;;5002240;28;20332;-76
2023/12/17 09:25:44;;;;;;;20.98;11.05;;;4.10;99.90;;;;;;5001932;28;20217;-74
2023/12/17 09:28:12;;;;;;;15.00;9.63;;;4.10;99.90;;;;;;5000903;28;20205;-74
2023/12/17 09:30:39;;;;;;;16.30;10.20;;;4.20;99.90;;;;;;5002578;28;20232;-74
2023/12/17 09:33:07;;;;;;;17.20;11.52;;;4.20;99.90;;;;;;5004119;28;20214;-75
2023/12/17 09:35:38;;;;;;;18.55;11.48;;;4.20;99.90;;;;;;5002732;28;21586;-74
2023/12/17 09:38:06;;;;;;;17.52;9.95;;;4.20;99.90;;;;;;5002359;28;20219;-72
2023/12/17 09:40:39;;;;;;;15.43;9.82;;;4.20;99.90;;;;;;5002089;28;20217;-73
2023/12/17 09:43:10;;;;;;;16.20;9.82;;;4.20;99.90;;;;;;5002905;28;20206;-71
2023/12/17 09:45:38;;;;;;;16.10;10.00;;;4.20;99.90;;;;;;5001412;28;20251;-75
2023/12/17 09:48:06;;;;;;;16.45;9.57;;;4.20;99.90;;;;;;5001071;28;20223;-73
2023/12/17 09:50:34;;;;;;;21.77;9.75;;;4.20;99.90;;;;;;5002153;28;20778;-71
2023/12/17 09:53:04;;;;;;;18.27;9.23;;;4.20;99.90;;;;;;5001716;28;20224;-71
2023/12/17 09:55:32;;;;;;;14.35;9.00;;;4.20;99.90;;;;;;5002011;28;20292;-72
2023/12/17 09:58:03;;;;;;;15.45;9.02;;;4.20;99.90;;;;;;5000767;28;20217;-72
2023/12/17 10:00:31;;;;;;;13.02;8.63;;;4.30;99.90;;;;;;5001179;28;20424;-70
2023/12/17 10:03:04;;;;;;;17.92;9.13;;;4.30;99.90;;;;;;5001030;28;20222;-73
2023/12/17 10:05:33;;;;;;;14.23;7.95;;;4.30;99.90;;;;;;5001207;28;20613;-73
2023/12/17 10:08:02;;;;;;;11.90;6.93;;;4.30;99.90;;;;;;5000509;28;20213;-70
2023/12/17 10:10:31;;;;;;;13.52;7.68;;;4.30;99.90;;;;;;5001077;28;20225;-71
2023/12/17 10:12:59;;;;;;;11.63;7.22;;;4.20;99.90;;;;;;5001306;28;20747;-74
2023/12/17 10:15:27;;;;;;;14.85;8.05;;;4.10;99.90;;;;;;5001509;28;20225;-71
2023/12/17 10:17:54;;;;;;;12.70;8.15;;;4.10;99.90;;;;;;5001041;28;20308;-74
2023/12/17 10:20:23;;;;;;;15.02;7.22;;;4.10;99.90;;;;;;5001273;28;20593;-74
2023/12/17 10:22:59;;;;;;;13.77;8.52;;;4.20;99.90;;;;;;5001506;28;20205;-71
2023/12/17 10:25:28;;;;;;;12.27;7.03;;;4.20;99.90;;;;;;5001289;28;20619;-72
2023/12/17 10:27:58;;;;;;;9.75;6.80;;;4.20;99.90;;;;;;5000651;28;20224;-71
2023/12/17 10:30:28;;;;;;;11.30;7.00;;;4.10;99.90;;;;;;5001273;28;20267;-74
2023/12/17 10:32:58;;;;;;;12.70;7.28;;;4.10;99.90;;;;;;5000448;28;20202;-73
2023/12/17 10:35:26;;;;;;;14.43;7.70;;;4.20;99.90;;;;;;5000201;28;20257;-74
2023/12/17 10:37:58;;;;;;;19.60;8.93;;;4.20;99.90;;;;;;4999251;28;20212;-72
2023/12/17 10:40:28;;;;;;;13.02;8.05;;;4.30;99.90;;;;;;4998995;28;20216;-72
2023/12/17 10:42:57;;;;;;;16.60;8.80;;;4.40;99.90;;;;;;5000347;28;20217;-71
2023/12/17 10:45:27;;;;;;;14.30;9.05;;;4.40;99.90;;;;;;5001429;28;20723;-72
2023/12/17 10:47:56;;;;;;;11.57;7.57;;;4.50;99.90;;;;;;4999579;28;20205;-74
2023/12/17 10:50:25;;;;;;;13.25;8.45;;;4.50;99.90;;;;;;4999046;28;20730;-71
2023/12/17 10:52:54;;;;;;;14.98;7.82;;;4.40;99.90;;;;;;5000801;28;20231;-72
2023/12/17 10:55:23;;;;;;;12.52;7.97;;;4.40;99.90;;;;;;5000771;28;20229;-73
2023/12/17 10:57:57;;;;;;;15.00;7.80;;;4.50;99.90;;;;;;4999539;28;20276;-74
2023/12/17 11:00:27;;;;;;;10.85;7.22;;;4.40;99.90;;;;;;5000455;28;21080;-74
2023/12/17 11:02:58;;;;;;;11.88;8.15;;;4.40;99.90;;;;;;4999584;28;20745;-73
2023/12/17 11:05:26;;;;;;;15.13;7.60;;;4.40;99.90;;;;;;5001047;28;20233;-73
2023/12/17 11:07:55;;;;;;;6.93;4.78;;;4.30;99.90;;;;;;4997144;28;20209;-74
2023/12/17 11:10:23;;;;;;;11.57;7.82;;;4.30;99.90;;;;;;5000768;28;20638;-71
2023/12/17 11:12:53;;;;;;;11.32;6.65;;;4.40;99.90;;;;;;4999452;28;20803;-73
2023/12/17 11:15:22;;;;;;;11.70;6.70;;;4.40;99.90;;;;;;5001212;28;20287;-71
2023/12/17 11:17:53;;;;;;;11.63;6.20;;;4.40;99.90;;;;;;4997835;28;20213;-73
2023/12/17 11:20:22;;;;;;;14.55;7.85;;;4.30;99.90;;;;;;5000568;28;20235;-72
2023/12/17 11:22:51;;;;;;;13.45;7.43;;;4.20;99.90;;;;;;4999336;28;20228;-73
2023/12/17 11:25:31;;;;;;;11.20;7.13;;;4.20;99.90;;;;;;5000569;28;20316;-72
2023/12/17 11:28:00;;;;;;;10.23;6.72;;;4.20;99.90;;;;;;4996964;28;20770;-73
2023/12/17 11:30:28;;;;;;;10.73;6.78;;;4.20;99.90;;;;;;5000030;28;20850;-75
2023/12/17 11:32:58;;;;;;;8.13;6.47;;;4.20;99.90;;;;;;4999685;28;20614;-72
2023/12/17 11:35:27;;;;;;;15.13;9.48;;;4.10;99.90;;;;;;4999154;28;20252;-74
2023/12/17 11:37:56;;;;;;;14.50;8.52;;;4.10;99.90;;;;;;4996926;28;20732;-72
2023/12/17 11:40:26;;;;;;;10.80;7.85;;;4.10;99.90;;;;;;5000580;28;20652;-73
2023/12/17 11:43:02;;;;;;;10.63;6.78;;;3.90;99.90;;;;;;4999318;28;20679;-71
2023/12/17 11:45:36;;;;;;;16.05;7.30;;;4.00;99.90;;;;;;4999197;28;20236;-71
2023/12/17 11:48:09;;;;;;;18.17;7.82;;;4.00;99.90;;;;;;4997121;28;20209;-71
2023/12/17 11:50:45;;;;;;;15.85;9.15;;;4.00;99.90;;;;;;5000814;28;20304;-72
2023/12/17 11:53:14;;;;;;;12.35;7.80;;;4.10;99.90;;;;;;4999296;28;20283;-72
2023/12/17 11:55:43;;;;;;;13.57;8.82;;;4.10;99.90;;;;;;4999679;28;20243;-73
2023/12/17 11:58:15;;;;;;;13.48;8.48;;;4.10;99.90;;;;;;4996532;28;20213;-72
2023/12/17 12:01:08;;;;;;;14.30;7.90;;;4.10;99.90;;;;;;5000703;28;21420;-72
2023/12/17 12:03:37;;;;;;;10.70;7.10;;;4.10;99.90;;;;;;4999179;28;20205;-69
2023/12/17 12:06:09;;;;;;;13.77;7.97;;;4.10;99.90;;;;;;5000710;28;20596;-75
2023/12/17 12:08:40;;;;;;;13.10;7.70;;;4.10;99.90;;;;;;4996737;28;20680;-73
2023/12/17 12:11:09;;;;;;;11.75;7.07;;;4.10;99.90;;;;;;4999813;28;20686;-72
2023/12/17 12:13:43;;;;;;;10.55;6.57;;;4.10;99.90;;;;;;4999377;28;20237;-72
2023/12/17 12:16:13;;;;;;;11.75;8.07;;;4.10;99.90;;;;;;4999736;28;20240;-71
2023/12/17 12:18:41;;;;;;;11.75;7.40;;;4.10;99.90;;;;;;4997120;28;20303;-70
2023/12/17 12:21:17;;;;;;;12.13;8.43;;;4.10;99.90;;;;;;4998946;28;20323;-73
2023/12/17 12:23:53;;;;;;;13.95;8.27;;;4.00;99.90;;;;;;5000158;28;20454;-71
2023/12/17 12:26:22;;;;;;;14.07;8.52;;;4.10;99.90;;;;;;5000645;28;20212;-69
2023/12/17 12:28:59;;;;;;;20.38;8.55;;;4.10;99.90;;;;;;4995884;28;20259;-73
2023/12/17 12:31:28;;;;;;;11.98;7.82;;;4.10;99.90;;;;;;4998694;28;20283;-72
2023/12/17 12:33:59;;;;;;;15.23;9.88;;;4.10;99.90;;;;;;4999090;28;20209;-70
2023/12/17 12:36:41;;;;;;;13.00;8.55;;;4.10;99.90;;;;;;4999318;28;20269;-69
2023/12/17 12:39:09;;;;;;;13.00;10.18;;;4.00;99.90;;;;;;4997140;28;20221;-72
2023/12/17 12:41:43;;;;;;;17.33;9.18;;;4.00;99.90;;;;;;4998983;28;20228;-73
2023/12/17 12:44:14;;;;;;;18.48;9.10;;;4.10;99.90;;;;;;4999830;28;20715;-71
2023/12/17 12:46:42;;;;;;;16.13;8.65;;;4.20;99.90;;;;;;4998496;28;20217;-73
2023/12/17 12:49:10;;;;;;;13.40;8.50;;;4.10;99.90;;;;;;4998160;28;20229;-70
2023/12/17 12:51:38;;;;;;;15.80;8.73;;;4.10;99.90;;;;;;4998926;28;20621;-73
2023/12/17 12:54:09;;;;;;;19.15;8.30;;;4.00;99.90;;;;;;4998702;28;20221;-70
2023/12/17 12:56:37;;;;;;;14.73;8.65;;;4.10;99.90;;;;;;4999340;28;20257;-70
2023/12/17 12:59:06;;;;;;;12.30;7.95;;;4.10;99.90;;;;;;4996755;28;20213;-71